createdAt,value
2023-01-09T00:00:31.600Z,6.10
2023-01-09T00:02:59.149Z,6.10
2023-01-09T00:05:26.873Z,6.10
2023-01-09T00:07:55.661Z,6.10
2023-01-09T00:10:23.097Z,6.00
2023-01-09T00:12:51.058Z,6.00
2023-01-09T00:15:18.750Z,6.00
2023-01-09T00:17:48.130Z,5.90
2023-01-09T00:20:16.075Z,5.90
2023-01-09T00:22:43.635Z,5.90
2023-01-09T00:25:12.507Z,5.80
2023-01-09T00:27:39.958Z,5.80
2023-01-09T00:30:08.915Z,5.80
2023-01-09T00:32:36.306Z,5.80
2023-01-09T00:35:04.122Z,5.80
2023-01-09T00:37:31.505Z,5.70
2023-01-09T00:39:58.928Z,5.70
2023-01-09T00:42:32.723Z,5.70
2023-01-09T00:45:03.701Z,5.70
2023-01-09T00:47:35.811Z,5.70
2023-01-09T00:50:07.531Z,5.70
2023-01-09T00:52:37.964Z,5.60
2023-01-09T00:55:06.891Z,5.60
2023-01-09T00:57:37.740Z,5.60
2023-01-09T01:00:09.629Z,5.60
2023-01-09T01:02:37.244Z,5.60
2023-01-09T01:05:24.089Z,5.50
2023-01-09T01:07:52.254Z,5.50
2023-01-09T01:10:21.711Z,5.50
2023-01-09T01:12:58.515Z,5.50
2023-01-09T01:15:31.092Z,5.50
2023-01-09T01:17:58.637Z,5.50
2023-01-09T01:20:26.120Z,5.40
2023-01-09T01:22:53.545Z,5.40
2023-01-09T01:25:21.030Z,5.40
2023-01-09T01:27:48.493Z,5.40
2023-01-09T01:30:18.721Z,5.40
2023-01-09T01:32:46.421Z,5.30
2023-01-09T01:35:13.940Z,5.40
2023-01-09T01:37:41.544Z,5.30
2023-01-09T01:40:11.279Z,5.30
2023-01-09T01:42:46.060Z,5.30
2023-01-09T01:45:16.074Z,5.20
2023-01-09T01:47:51.037Z,5.20
2023-01-09T01:50:25.696Z,5.20
2023-01-09T01:52:59.468Z,5.20
2023-01-09T01:55:27.110Z,5.20
2023-01-09T01:58:00.635Z,5.20
2023-01-09T02:00:32.536Z,5.20
2023-01-09T02:03:02.172Z,5.10
2023-01-09T02:05:30.364Z,5.10
2023-01-09T02:07:57.902Z,5.10
2023-01-09T02:10:25.576Z,5.10
2023-01-09T02:12:53.076Z,5.10
2023-01-09T02:15:21.006Z,5.10
2023-01-09T02:18:09.568Z,5.00
2023-01-09T02:20:45.270Z,5.00
2023-01-09T02:23:39.399Z,5.00
2023-01-09T02:26:53.071Z,5.00
2023-01-09T02:29:45.241Z,5.00
2023-01-09T02:32:26.511Z,4.90
2023-01-09T02:35:05.519Z,5.00
2023-01-09T02:37:42.654Z,5.00
2023-01-09T02:40:18.357Z,4.90
2023-01-09T02:42:47.118Z,4.90
2023-01-09T02:45:14.712Z,4.90
2023-01-09T02:47:46.701Z,4.90
2023-01-09T02:50:20.344Z,4.90
2023-01-09T02:53:08.651Z,4.90
2023-01-09T02:55:53.134Z,4.90
2023-01-09T02:58:34.507Z,4.80
2023-01-09T03:01:14.374Z,4.80
2023-01-09T03:03:50.051Z,4.80
2023-01-09T03:06:21.825Z,4.80
2023-01-09T03:08:53.810Z,4.80
2023-01-09T03:11:22.152Z,4.80
2023-01-09T03:13:52.124Z,4.80
2023-01-09T03:16:23.904Z,4.80
2023-01-09T03:18:55.260Z,4.80
2023-01-09T03:21:24.122Z,4.80
2023-01-09T03:23:53.295Z,4.80
2023-01-09T03:26:21.407Z,4.80
2023-01-09T03:28:49.440Z,4.80
2023-01-09T03:31:17.675Z,4.80
2023-01-09T03:33:46.049Z,4.80
2023-01-09T03:36:15.934Z,4.80
2023-01-09T03:38:43.423Z,4.90
2023-01-09T03:41:10.926Z,4.90
2023-01-09T03:43:38.570Z,4.90
2023-01-09T03:46:06.385Z,4.90
2023-01-09T03:48:35.405Z,4.90
2023-01-09T03:51:02.843Z,5.00
2023-01-09T03:53:31.671Z,5.00
2023-01-09T03:55:59.236Z,5.00
2023-01-09T03:58:27.501Z,5.00
2023-01-09T04:00:59.983Z,5.10
2023-01-09T04:03:28.492Z,5.10
2023-01-09T04:05:55.894Z,5.10
2023-01-09T04:08:23.330Z,5.20
2023-01-09T04:10:52.465Z,5.20
2023-01-09T04:13:20.097Z,5.20
2023-01-09T04:15:47.520Z,5.30
2023-01-09T04:18:15.088Z,5.30
2023-01-09T04:20:42.791Z,5.30
2023-01-09T04:23:10.829Z,5.30
2023-01-09T04:25:38.271Z,5.30
2023-01-09T04:28:07.839Z,5.30
2023-01-09T04:30:35.687Z,5.30
2023-01-09T04:33:03.129Z,5.40
2023-01-09T04:35:30.659Z,5.40
2023-01-09T04:37:58.108Z,5.40
2023-01-09T04:40:25.951Z,5.40
2023-01-09T04:42:53.362Z,5.40
2023-01-09T04:45:22.308Z,5.40
2023-01-09T04:47:49.913Z,5.50
2023-01-09T04:50:17.553Z,5.50
2023-01-09T04:52:45.033Z,5.50
2023-01-09T04:55:12.590Z,5.50
2023-01-09T04:57:39.981Z,5.50
2023-01-09T05:00:12.394Z,5.50
2023-01-09T05:02:42.404Z,5.50
2023-01-09T05:05:11.878Z,5.50
2023-01-09T05:07:40.068Z,5.50
2023-01-09T05:10:08.737Z,5.50
2023-01-09T05:12:36.458Z,5.60
2023-01-09T05:15:04.565Z,5.60
2023-01-09T05:17:32.959Z,5.60
2023-01-09T05:20:01.732Z,5.60
2023-01-09T05:22:29.317Z,5.60
2023-01-09T05:24:57.554Z,5.60
2023-01-09T05:27:27.301Z,5.60
2023-01-09T05:29:54.710Z,5.70
2023-01-09T05:32:22.248Z,5.70
2023-01-09T05:34:49.708Z,5.70
2023-01-09T05:37:18.457Z,5.70
2023-01-09T05:39:45.874Z,5.70
2023-01-09T05:42:13.320Z,5.70
2023-01-09T05:44:40.896Z,5.70
2023-01-09T05:47:08.470Z,5.80
2023-01-09T05:49:35.954Z,5.80
2023-01-09T05:52:03.484Z,5.80
2023-01-09T05:54:32.221Z,5.90
2023-01-09T05:56:59.804Z,5.80
2023-01-09T05:59:27.342Z,5.80
2023-01-09T06:01:54.792Z,5.80
2023-01-09T06:04:22.293Z,5.80
2023-01-09T06:06:49.747Z,5.80
2023-01-09T06:09:17.237Z,5.80
2023-01-09T06:11:47.513Z,5.80
2023-01-09T06:14:14.916Z,5.90
2023-01-09T06:16:42.302Z,5.80
2023-01-09T06:19:09.695Z,5.80
2023-01-09T06:21:37.085Z,5.80
2023-01-09T06:24:05.107Z,5.90
2023-01-09T06:26:32.876Z,5.90
2023-01-09T06:29:02.150Z,5.90
2023-01-09T06:31:29.791Z,5.90
2023-01-09T06:33:59.896Z,6.00
2023-01-09T06:36:27.284Z,6.00
2023-01-09T06:38:57.253Z,6.00
2023-01-09T06:41:24.666Z,6.00
2023-01-09T06:43:52.197Z,6.00
2023-01-09T06:46:21.060Z,6.00
2023-01-09T06:48:48.369Z,6.00
2023-01-09T06:51:15.586Z,6.00
2023-01-09T06:53:42.795Z,6.00
2023-01-09T06:56:10.013Z,6.00
2023-01-09T06:58:37.272Z,6.00
2023-01-09T07:01:04.895Z,6.00
2023-01-09T07:03:33.940Z,6.00
2023-01-09T07:06:01.207Z,6.00
2023-01-09T07:08:28.523Z,6.00
2023-01-09T07:10:55.838Z,6.10
2023-01-09T07:13:24.093Z,6.00
2023-01-09T07:15:53.619Z,6.10
2023-01-09T07:19:36.358Z,6.50
2023-01-09T07:22:03.741Z,6.10
2023-01-09T07:24:30.960Z,6.00
2023-01-09T07:26:58.224Z,6.10
2023-01-09T07:29:25.544Z,6.10
2023-01-09T07:31:52.793Z,6.10
2023-01-09T07:34:20.389Z,6.10
2023-01-09T07:36:50.632Z,6.10
2023-01-09T07:39:17.947Z,6.20
2023-01-09T07:41:45.664Z,6.20
2023-01-09T07:44:15.193Z,6.20
2023-01-09T07:46:42.552Z,6.10
2023-01-09T07:49:09.925Z,6.20
2023-01-09T07:51:39.207Z,6.20
2023-01-09T07:54:07.972Z,6.20
2023-01-09T07:56:35.316Z,6.20
2023-01-09T07:59:02.627Z,6.20
2023-01-09T08:01:29.967Z,6.20
2023-01-09T08:03:57.426Z,6.20
2023-01-09T08:06:24.731Z,6.20
2023-01-09T08:08:52.056Z,6.30
2023-01-09T08:11:20.670Z,6.30
2023-01-09T08:13:48.108Z,6.30
2023-01-09T08:16:15.604Z,6.30
2023-01-09T08:18:43.116Z,6.30
2023-01-09T08:21:11.399Z,6.30
2023-01-09T08:23:38.674Z,6.30
2023-01-09T08:26:06.374Z,6.40
2023-01-09T08:28:35.054Z,6.40
2023-01-09T08:31:02.447Z,6.40
2023-01-09T08:33:29.901Z,6.30
2023-01-09T08:35:57.239Z,6.30
2023-01-09T08:38:24.556Z,6.30
2023-01-09T08:40:51.805Z,6.30
2023-01-09T08:43:37.733Z,6.40
2023-01-09T08:46:28.192Z,6.40
2023-01-09T08:48:55.435Z,6.40
2023-01-09T08:51:22.673Z,6.40
2023-01-09T08:53:49.929Z,6.50
2023-01-09T08:56:17.180Z,6.50
2023-01-09T08:58:44.939Z,6.50
2023-01-09T09:01:13.591Z,6.40
2023-01-09T09:03:40.833Z,6.40
2023-01-09T09:06:08.185Z,6.50
2023-01-09T09:08:35.516Z,6.50
2023-01-09T09:11:02.786Z,6.50
2023-01-09T09:13:30.032Z,6.40
2023-01-09T09:15:57.373Z,6.40
2023-01-09T09:18:26.047Z,6.50
2023-01-09T09:20:53.287Z,6.60
2023-01-09T09:23:20.541Z,6.50
2023-01-09T09:25:47.799Z,6.50
2023-01-09T09:28:15.104Z,6.50
2023-01-09T09:30:42.795Z,6.60
2023-01-09T09:33:10.099Z,6.70
2023-01-09T09:35:38.727Z,6.70
2023-01-09T09:38:06.195Z,6.70
2023-01-09T09:41:03.748Z,6.80
2023-01-09T09:44:18.992Z,6.70
2023-01-09T09:46:54.033Z,6.70
2023-01-09T09:49:27.955Z,6.80
2023-01-09T09:52:08.207Z,6.80
2023-01-09T09:54:40.086Z,6.80
2023-01-09T09:57:13.485Z,6.90
2023-01-09T09:59:43.171Z,6.90
2023-01-09T10:02:25.910Z,6.90
2023-01-09T10:05:00.215Z,6.90
2023-01-09T10:07:33.217Z,6.90
2023-01-09T10:10:05.089Z,6.90
2023-01-09T10:12:37.720Z,6.90
2023-01-09T10:15:16.384Z,7.00
2023-01-09T10:18:00.900Z,7.00
2023-01-09T10:20:47.930Z,7.00
2023-01-09T10:23:42.859Z,7.10
2023-01-09T10:26:13.731Z,7.10
2023-01-09T10:28:56.826Z,7.10
2023-01-09T10:31:31.535Z,7.20
2023-01-09T10:34:11.464Z,7.20
2023-01-09T10:36:59.895Z,7.20
2023-01-09T10:39:35.518Z,7.20
2023-01-09T10:42:11.283Z,7.30
2023-01-09T10:44:47.114Z,7.30
2023-01-09T10:47:18.003Z,7.30
2023-01-09T10:49:47.741Z,7.30
2023-01-09T10:52:18.224Z,7.30
2023-01-09T10:54:52.583Z,7.30
2023-01-09T10:57:34.140Z,7.40
2023-01-09T11:00:01.563Z,7.40
2023-01-09T11:02:31.933Z,7.40
2023-01-09T11:04:59.245Z,7.40
2023-01-09T11:07:30.595Z,7.50
2023-01-09T11:10:01.620Z,7.50
2023-01-09T11:12:31.363Z,7.50
2023-01-09T11:15:28.891Z,7.50
2023-01-09T11:18:19.361Z,7.60
2023-01-09T11:20:46.933Z,7.60
2023-01-09T11:23:31.915Z,7.60
2023-01-09T11:26:01.973Z,7.70
2023-01-09T11:28:29.586Z,7.70
2023-01-09T11:31:02.572Z,7.80
2023-01-09T11:33:34.403Z,7.70
2023-01-09T11:36:07.781Z,7.70
2023-01-09T11:38:49.337Z,7.70
2023-01-09T11:41:21.179Z,7.70
2023-01-09T11:43:50.642Z,7.70
2023-01-09T11:46:32.255Z,7.70
2023-01-09T11:49:00.747Z,7.70
2023-01-09T11:51:30.727Z,7.60
2023-01-09T11:54:22.385Z,7.60
2023-01-09T11:56:51.739Z,7.60
2023-01-09T11:59:22.003Z,7.70
2023-01-09T12:02:05.807Z,7.80
2023-01-09T12:04:37.724Z,7.80
2023-01-09T12:07:30.867Z,7.90
2023-01-09T12:10:06.180Z,7.80
2023-01-09T12:12:44.410Z,7.80
2023-01-09T12:15:27.167Z,7.80
2023-01-09T12:18:23.887Z,7.90
2023-01-09T12:21:02.128Z,8.00
2023-01-09T12:23:43.836Z,8.30
2023-01-09T12:26:17.835Z,8.60
2023-01-09T12:29:12.960Z,8.90
2023-01-09T12:31:53.169Z,9.10
2023-01-09T12:34:37.681Z,9.30
2023-01-09T12:37:23.056Z,9.50
2023-01-09T12:40:02.844Z,9.60
2023-01-09T12:42:43.574Z,9.70
2023-01-09T12:45:33.445Z,9.90
2023-01-09T12:48:07.814Z,10.00
2023-01-09T12:50:55.998Z,10.40
2023-01-09T12:53:25.960Z,10.70
2023-01-09T12:56:00.439Z,10.90
2023-01-09T12:58:33.767Z,11.00
2023-01-09T13:01:07.345Z,11.00
2023-01-09T13:03:41.332Z,11.20
2023-01-09T13:06:14.476Z,11.40
2023-01-09T13:08:46.344Z,11.50
2023-01-09T13:11:20.686Z,11.40
2023-01-09T13:13:53.318Z,11.40
2023-01-09T13:16:26.999Z,11.50
2023-01-09T13:18:59.300Z,11.60
2023-01-09T13:21:27.191Z,11.80
2023-01-09T13:23:59.090Z,12.00
2023-01-09T13:26:30.250Z,12.20
2023-01-09T13:29:03.083Z,12.40
2023-01-09T13:32:05.572Z,12.50
2023-01-09T13:34:35.338Z,12.80
2023-01-09T13:37:03.248Z,12.90
2023-01-09T13:39:32.681Z,13.10
2023-01-09T13:42:20.719Z,13.40
2023-01-09T13:44:50.040Z,13.50
2023-01-09T13:47:21.084Z,13.70
2023-01-09T13:50:01.181Z,13.90
2023-01-09T13:52:32.784Z,14.00
2023-01-09T13:55:23.851Z,14.10
2023-01-09T13:58:22.725Z,14.30
2023-01-09T14:01:25.480Z,14.20
2023-01-09T14:04:37.365Z,14.00
2023-01-09T14:07:22.097Z,13.70
2023-01-09T14:09:54.347Z,13.30
2023-01-09T14:12:23.236Z,12.80
2023-01-09T14:14:53.664Z,12.70
2023-01-09T14:17:30.027Z,12.60
2023-01-09T14:20:00.755Z,12.40
2023-01-09T14:22:31.003Z,12.30
2023-01-09T14:25:05.957Z,12.20
2023-01-09T14:28:18.587Z,11.90
2023-01-09T14:31:05.774Z,11.60
2023-01-09T14:33:33.170Z,11.50
2023-01-09T14:36:11.836Z,11.30
2023-01-09T14:38:43.539Z,11.30
2023-01-09T14:41:20.918Z,11.10
2023-01-09T14:43:56.656Z,11.00
2023-01-09T14:46:25.368Z,10.90
2023-01-09T14:49:03.003Z,10.80
2023-01-09T14:51:37.148Z,10.80
2023-01-09T14:54:18.871Z,10.70
2023-01-09T14:56:48.093Z,10.60
2023-01-09T14:59:16.297Z,10.50
2023-01-09T15:01:47.670Z,10.50
2023-01-09T15:04:26.057Z,10.40
2023-01-09T15:06:54.789Z,10.40
2023-01-09T15:09:27.020Z,10.30
2023-01-09T15:11:57.853Z,10.20
2023-01-09T15:14:33.932Z,10.20
2023-01-09T15:17:02.427Z,10.20
2023-01-09T15:19:31.860Z,10.10
2023-01-09T15:22:03.152Z,10.10
2023-01-09T15:24:33.417Z,10.00
2023-01-09T15:27:05.227Z,9.90
2023-01-09T15:29:32.602Z,9.90
2023-01-09T15:32:04.516Z,9.80
2023-01-09T15:34:32.858Z,9.70
2023-01-09T15:37:03.034Z,9.70
2023-01-09T15:39:35.863Z,9.70
2023-01-09T15:42:22.999Z,9.60
2023-01-09T15:44:53.684Z,9.60
2023-01-09T15:47:23.930Z,9.50
2023-01-09T15:49:52.272Z,9.50
2023-01-09T15:52:23.130Z,9.40
2023-01-09T15:54:50.748Z,9.40
2023-01-09T15:57:34.098Z,9.30
2023-01-09T16:00:34.469Z,9.30
2023-01-09T16:03:11.759Z,9.30
2023-01-09T16:05:40.196Z,9.20
2023-01-09T16:08:21.061Z,9.20
2023-01-09T16:10:53.350Z,9.20
2023-01-09T16:13:24.276Z,9.10
2023-01-09T16:15:52.767Z,9.10
2023-01-09T16:18:28.096Z,9.10
2023-01-09T16:21:03.191Z,9.10
2023-01-09T16:23:33.982Z,9.00
2023-01-09T16:26:07.072Z,8.90
2023-01-09T16:28:34.709Z,9.00
2023-01-09T16:31:07.172Z,8.90
2023-01-09T16:33:35.217Z,8.90
2023-01-09T16:36:04.964Z,8.90
2023-01-09T16:38:34.458Z,8.90
2023-01-09T16:41:22.106Z,8.90
2023-01-09T16:43:50.627Z,8.90
2023-01-09T16:46:20.830Z,8.70
2023-01-09T16:48:49.041Z,8.60
2023-01-09T16:51:18.506Z,8.60
2023-01-09T16:53:47.461Z,8.50
2023-01-09T16:56:17.600Z,8.50
2023-01-09T16:58:44.955Z,8.50
2023-01-09T17:01:13.584Z,8.40
2023-01-09T17:03:43.710Z,8.40
2023-01-09T17:06:18.644Z,8.40
2023-01-09T17:08:47.430Z,8.30
2023-01-09T17:11:20.746Z,8.30
2023-01-09T17:13:48.379Z,8.30
2023-01-09T17:16:16.891Z,8.20
2023-01-09T17:18:44.476Z,8.20
2023-01-09T17:21:16.986Z,8.10
2023-01-09T17:23:44.626Z,8.10
2023-01-09T17:26:36.909Z,8.10
2023-01-09T17:29:05.094Z,8.10
2023-01-09T17:31:32.496Z,8.00
2023-01-09T17:33:59.803Z,8.00
2023-01-09T17:36:29.171Z,8.00
2023-01-09T17:38:56.465Z,8.00
2023-01-09T17:41:27.178Z,8.00
2023-01-09T17:43:55.236Z,8.00
2023-01-09T17:46:27.052Z,8.00
2023-01-09T17:48:54.928Z,7.90
2023-01-09T17:51:22.301Z,7.90
2023-01-09T17:53:49.718Z,7.90
2023-01-09T17:56:19.877Z,7.80
2023-01-09T17:58:48.510Z,7.70
2023-01-09T18:01:17.229Z,7.70
2023-01-09T18:03:46.765Z,7.70
2023-01-09T18:06:16.545Z,7.70
2023-01-09T18:08:43.901Z,7.70
2023-01-09T18:11:14.111Z,7.70
2023-01-09T18:13:41.541Z,7.60
2023-01-09T18:16:12.121Z,7.60
2023-01-09T18:18:40.254Z,7.60
2023-01-09T18:21:08.828Z,7.60
2023-01-09T18:23:36.571Z,7.60
2023-01-09T18:26:06.908Z,7.60
2023-01-09T18:28:36.584Z,7.70
2023-01-09T18:31:05.239Z,7.70
2023-01-09T18:33:33.843Z,7.60
2023-01-09T18:36:06.417Z,7.60
2023-01-09T18:38:33.820Z,7.60
2023-01-09T18:41:02.337Z,7.60
2023-01-09T18:43:29.783Z,7.60
2023-01-09T18:45:57.240Z,7.60
2023-01-09T18:48:24.872Z,7.60
2023-01-09T18:51:04.022Z,7.60
2023-01-09T18:53:31.334Z,7.60
2023-01-09T18:56:01.966Z,7.50
2023-01-09T18:58:29.522Z,7.50
2023-01-09T19:00:56.928Z,7.50
2023-01-09T19:03:24.283Z,7.50
2023-01-09T19:05:51.548Z,7.50
2023-01-09T19:08:21.545Z,7.50
2023-01-09T19:10:51.845Z,7.50
2023-01-09T19:13:19.545Z,7.40
2023-01-09T19:15:46.846Z,7.40
2023-01-09T19:18:15.741Z,7.40
2023-01-09T19:20:43.116Z,7.40
2023-01-09T19:23:10.447Z,7.40
2023-01-09T19:25:39.382Z,7.30
2023-01-09T19:28:06.702Z,7.40
2023-01-09T19:30:37.077Z,7.40
2023-01-09T19:33:04.587Z,7.40
2023-01-09T19:35:32.695Z,7.30
2023-01-09T19:38:00.065Z,7.30
2023-01-09T19:40:27.460Z,7.30
2023-01-09T19:42:56.683Z,7.30
2023-01-09T19:45:24.192Z,7.40
2023-01-09T19:47:51.767Z,7.40
2023-01-09T19:50:19.239Z,7.30
2023-01-09T19:52:46.682Z,7.30
2023-01-09T19:55:14.680Z,7.30
2023-01-09T19:57:42.893Z,7.30
2023-01-09T20:00:13.242Z,7.40
2023-01-09T20:02:40.983Z,7.40
2023-01-09T20:05:09.089Z,7.40
2023-01-09T20:07:36.557Z,7.40
2023-01-09T20:10:04.635Z,7.40
2023-01-09T20:12:32.377Z,7.40
2023-01-09T20:14:59.732Z,7.40
2023-01-09T20:17:28.553Z,7.40
2023-01-09T20:19:56.071Z,7.30
2023-01-09T20:22:25.833Z,7.30
2023-01-09T20:24:53.258Z,7.30
2023-01-09T20:27:20.555Z,7.30
2023-01-09T20:29:48.584Z,7.30
2023-01-09T20:32:16.120Z,7.30
2023-01-09T20:34:44.981Z,7.30
2023-01-09T20:37:12.390Z,7.30
2023-01-09T20:39:39.672Z,7.30
2023-01-09T20:42:06.970Z,7.30
2023-01-09T20:44:34.445Z,7.30
2023-01-09T20:47:01.740Z,7.30
2023-01-09T20:49:29.063Z,7.40
2023-01-09T20:51:57.687Z,7.50
2023-01-09T20:54:25.179Z,7.50
2023-01-09T20:56:53.614Z,7.50
2023-01-09T20:59:21.910Z,7.50
2023-01-09T21:01:49.608Z,7.40
2023-01-09T21:04:18.071Z,7.40
2023-01-09T21:06:45.805Z,7.50
2023-01-09T21:09:15.003Z,7.50
2023-01-09T21:11:42.254Z,7.50
2023-01-09T21:14:09.571Z,7.50
2023-01-09T21:16:36.946Z,7.50
2023-01-09T21:19:04.437Z,7.50
2023-01-09T21:21:31.818Z,7.60
2023-01-09T21:24:00.893Z,7.50
2023-01-09T21:26:30.653Z,7.60
2023-01-09T21:29:00.000Z,7.60
2023-01-09T21:31:34.008Z,7.60
2023-01-09T21:34:03.548Z,7.60
2023-01-09T21:36:31.016Z,7.60
2023-01-09T21:38:58.901Z,7.60
2023-01-09T21:41:45.239Z,7.60
2023-01-09T21:44:32.680Z,7.60
2023-01-09T21:47:01.267Z,7.60
2023-01-09T21:49:31.312Z,7.70
2023-01-09T21:51:58.727Z,7.70
2023-01-09T21:54:26.122Z,7.60
2023-01-09T21:56:54.528Z,7.60
2023-01-09T21:59:23.126Z,7.60
2023-01-09T22:01:51.149Z,7.60
2023-01-09T22:04:20.714Z,7.60
2023-01-09T22:06:48.147Z,7.60
2023-01-09T22:09:15.867Z,7.60
2023-01-09T22:11:43.549Z,7.60
2023-01-09T22:14:11.978Z,7.60
2023-01-09T22:16:40.902Z,7.70
2023-01-09T22:19:08.417Z,7.70
2023-01-09T22:21:35.720Z,7.70
2023-01-09T22:24:03.137Z,7.70
2023-01-09T22:26:30.741Z,7.70
2023-01-09T22:28:58.076Z,7.70
2023-01-09T22:31:25.952Z,7.70
2023-01-09T22:33:59.718Z,7.70
2023-01-09T22:36:28.759Z,7.60
2023-01-09T22:38:57.138Z,7.60
2023-01-09T22:41:25.704Z,7.60
2023-01-09T22:43:53.015Z,7.60
2023-01-09T22:46:20.349Z,7.50
2023-01-09T22:48:47.693Z,7.60
2023-01-09T22:51:17.619Z,7.50
2023-01-09T22:53:46.102Z,7.50
2023-01-09T22:56:14.856Z,7.50
2023-01-09T22:58:42.811Z,7.50
2023-01-09T23:01:11.097Z,7.50
2023-01-09T23:03:38.663Z,7.50
2023-01-09T23:06:08.157Z,7.40
2023-01-09T23:08:37.014Z,7.40
2023-01-09T23:11:06.936Z,7.50
2023-01-09T23:13:34.443Z,7.50
2023-01-09T23:16:01.831Z,7.60
2023-01-09T23:18:29.197Z,7.60
2023-01-09T23:20:58.577Z,7.60
2023-01-09T23:23:27.298Z,7.60
2023-01-09T23:25:57.838Z,7.50
2023-01-09T23:28:26.780Z,7.50
2023-01-09T23:30:54.343Z,7.50
2023-01-09T23:33:21.597Z,7.50
2023-01-09T23:35:49.239Z,7.50
2023-01-09T23:38:16.582Z,7.50
2023-01-09T23:40:43.826Z,7.50
2023-01-09T23:43:14.747Z,7.50
2023-01-09T23:45:43.679Z,7.50
2023-01-09T23:48:14.282Z,7.50
2023-01-09T23:50:43.849Z,7.50
2023-01-09T23:53:11.252Z,7.50
2023-01-09T23:55:38.519Z,7.50
2023-01-09T23:58:05.779Z,7.50
